Archival Weather

Norman Y Mineta San Jose Intl

San Jose, California (KSJC)

Report from: Sunday, February 11, 2024 4:19 AM PST
Current time: Monday, June 24, 2024 3:39 AM PDT

Current weather – Weather history – Daily summaries
Weather forecast

Temperature6.1°C (43.0°F)
Wind chill5.1°C (41.3°F)
Dew point3.3°C (37.9°F)
Winds 3 kts (1.5 m/s, 3.5 mph) South-Southeast (150°)
Visibility10 mi. (16.1 km)
Clouds Ceiling: Broken clouds 1,500 ft. (457 m)
Altimeter30.21 in.Hg (1023 mB)
Relative humidity82 %
Density altitude-1,290 ft. (-393 m)
Remarks Fully automated report
Automated weather observing station with precipitation discriminator
Flight conditions Marginal Visual Meteorological Conditions
Raw dataKSJC 111219Z AUTO 15003KT 10SM BKN015 06/03 A3021 RMK AO2 T00610033
An error has occurred. This application may no longer respond until reloaded. Reload 🗙